Aérodrome :
LOGIN :

S'inscrire | Disclaimer

   EN    FR    IT 

 










Légende :    VFR   VFR Marginal   IFR   IFR Intensif   IFR Très Intensif
Visi : 
Plafond : 
>= 8 km
>= 3000ft
5 à 8 km
1000 à 3000 ft
1500m à 5 km
500 à 1000 ft
800 à 1500m
200 à 500 ft
< 800m
< 200 ft
Symboles :   Orages  Brouillard  Fortes neiges  Fortes précipitations  Vent > 20 kt
SIGMETs :   Divers  Orages  Givrage  Turbulence  Onde Orograph.  Cendres Volcan.







- Altitude de l'aérodrome : 935 ft


EBFS - Florennes

DERNIER METAR :
  • 241525Z 04011KT 9999 FEW022 SCT200 11/06 Q1026 BLU BLU

METARs EXPIRÉS :
  • 241455Z 02012KT 9999 FEW022 SCT200 11/06 Q1025 BLU BLU
  • 241425Z 03011KT 9999 FEW022 SCT200 11/06 Q1025 BLU BLU
  • 241355Z 04011KT 9000 FEW021 SCT200 11/06 Q1025 BLU BLU
  • 241337Z 06011KT 9000 FEW021 SCT200 11/05 Q1025 BLU BLU
  • 241325Z 06012KT 9000 FEW021 SCT200 11/06 Q1025 BLU BLU TEMPO WHT
  • 241255Z 05008KT 9000 FEW020 SCT220 10/05 Q1026 BLU BLU TEMPO WHT
  • 241254Z 06009KT 9000 FEW020 SCT220 10/05 Q1026 BLU BLU TEMPO WHT

TAF TAF EBFS
Valide du 24 à 10h jusqu'au 24 à 19h UTC


240841Z 2410/2419 09010KT 9999 FEW020 SCT220
TEMPO 2410/2412 SCT020 SCT220
Pas de NOTAMs connus pour ce terrain.



MET'MAP, la Météo Aéronautique d'un coup d'oeil ! - Copyright ORBIFLY Décembre 2007 - Disclaimer

ORBIFLY MET'MAP TEAM :

Programmation & Développement : Alexandra Zaïnal
Conception & Développement : Baudouin d'Aumeries
Co-Programmation & Développement : Marc-Olivier Méhu
Soutien technique & logistique : Manuel Goepfert

Contact : metmap@orbifly.com




SOURCES & CREDITS :

   NOAA